Time;durP1;ratioP1;P1;durP2;ratioP2;P2;SDS_P1;SDS_P2;PMS_P1;PMS_P2;Temp;Humidity;BMP_temperature;BMP_pressure;BME280_temperature;BME280_humidity;BME280_pressure;Samples;Min_cycle;Max_cycle;Signal;HPM_P1;HPM_P2
2022/09/08 00:00:38;;;;;;;5.68;3.60;;;17.30;99.90;;;;;;5055192;28;20038;-82
2022/09/08 00:03:11;;;;;;;5.95;3.70;;;17.30;99.90;;;;;;5038301;28;20152;-82
2022/09/08 00:05:49;;;;;;;6.20;3.92;;;17.30;99.90;;;;;;5055295;28;20129;-82
2022/09/08 00:08:20;;;;;;;5.18;4.18;;;17.30;99.90;;;;;;5038835;28;20031;-82
2022/09/08 00:10:53;;;;;;;6.10;4.60;;;17.30;99.90;;;;;;5054841;28;20088;-83
2022/09/08 00:13:20;;;;;;;10.95;4.80;;;17.30;99.90;;;;;;5072349;28;20568;-82
2022/09/08 00:15:47;;;;;;;5.72;5.13;;;17.30;99.90;;;;;;5038225;28;20043;-82
2022/09/08 00:18:13;;;;;;;10.35;5.80;;;17.30;99.90;;;;;;5037890;28;20564;-82
2022/09/08 00:20:39;;;;;;;10.52;6.43;;;17.30;99.90;;;;;;5040473;28;20070;-82
2022/09/08 00:23:05;;;;;;;11.32;7.20;;;17.30;99.90;;;;;;5041424;28;20046;-82
2022/09/08 00:25:31;;;;;;;10.73;7.75;;;17.20;99.90;;;;;;5059129;28;20050;-82
2022/09/08 00:27:56;;;;;;;9.68;7.80;;;17.20;99.90;;;;;;5042199;28;20043;-80
2022/09/08 00:30:22;;;;;;;9.35;7.88;;;17.30;99.90;;;;;;5042207;28;20047;-80
2022/09/08 00:32:48;;;;;;;11.77;8.30;;;17.30;99.90;;;;;;5042048;28;20536;-81
2022/09/08 00:35:18;;;;;;;13.60;9.05;;;17.30;99.90;;;;;;5041990;28;20412;-81
2022/09/08 00:37:48;;;;;;;10.25;8.65;;;17.20;99.90;;;;;;5041892;28;20412;-81
2022/09/08 00:40:14;;;;;;;11.73;8.95;;;17.20;99.90;;;;;;5042118;28;20065;-81
2022/09/08 00:42:41;;;;;;;13.68;9.07;;;17.20;99.90;;;;;;5041709;28;20050;-81
2022/09/08 00:45:09;;;;;;;11.90;9.40;;;17.10;99.90;;;;;;5058801;28;20472;-81
2022/09/08 00:47:54;;;;;;;13.05;8.90;;;17.10;99.90;;;;;;5042039;28;20055;-81
2022/09/08 00:50:24;;;;;;;11.63;9.60;;;17.10;99.90;;;;;;5075476;28;20039;-81
2022/09/08 00:52:53;;;;;;;12.43;9.45;;;17.10;99.90;;;;;;5041595;28;20064;-81
2022/09/08 00:55:20;;;;;;;12.38;9.98;;;17.10;99.90;;;;;;5041914;28;20047;-81
2022/09/08 00:57:47;;;;;;;12.30;10.30;;;17.00;99.90;;;;;;5058329;28;20081;-80
2022/09/08 01:00:16;;;;;;;13.23;11.23;;;17.00;99.90;;;;;;5058119;28;20126;-81
2022/09/08 01:02:44;;;;;;;15.98;12.43;;;17.00;99.90;;;;;;5041607;28;20042;-81
2022/09/08 01:05:13;;;;;;;16.42;12.10;;;17.00;99.90;;;;;;5041532;28;20058;-81
2022/09/08 01:13:46;;;;;;;19.70;14.02;;;17.00;99.90;;;;;;5048628;28;20136;-81
2022/09/08 01:16:11;;;;;;;17.23;14.18;;;16.90;99.90;;;;;;5041866;28;20475;-81
2022/09/08 01:18:38;;;;;;;20.70;14.60;;;16.90;99.90;;;;;;5074378;28;20046;-81
2022/09/08 01:21:04;;;;;;;;;;;16.90;99.90;;;;;;5058431;28;20050;-81
2022/09/08 01:23:55;;;;;;;19.95;15.48;;;16.90;99.90;;;;;;5057847;28;19922;-81
2022/09/08 01:27:02;;;;;;;20.88;16.65;;;16.90;99.90;;;;;;5041694;28;20121;-81
2022/09/08 01:29:27;;;;;;;20.63;17.55;;;16.90;99.90;;;;;;5017157;28;20055;-81
2022/09/08 01:31:53;;;;;;;21.70;17.48;;;16.90;99.90;;;;;;5074424;28;20129;-81
2022/09/08 01:34:19;;;;;;;22.77;17.50;;;16.90;99.90;;;;;;5074494;28;20046;-81
2022/09/08 01:36:45;;;;;;;;;;;17.00;99.90;;;;;;5041317;28;20062;-81
2022/09/08 01:39:11;;;;;;;22.77;16.90;;;16.90;99.90;;;;;;5074270;28;19918;-81
2022/09/08 01:41:37;;;;;;;22.75;17.08;;;16.90;99.90;;;;;;5057278;28;20054;-81
2022/09/08 01:44:04;;;;;;;20.90;16.80;;;16.90;99.90;;;;;;5074274;28;20034;-81
2022/09/08 01:46:30;;;;;;;25.48;19.05;;;16.90;99.90;;;;;;5074309;28;20043;-81
2022/09/08 01:48:57;;;;;;;25.60;19.23;;;16.90;99.90;;;;;;5040532;28;20050;-81
2022/09/08 01:51:23;;;;;;;25.40;19.88;;;16.90;99.90;;;;;;5057335;28;20039;-80
2022/09/08 01:53:49;;;;;;;;;;;16.90;99.90;;;;;;5057797;28;20129;-81
2022/09/08 01:56:14;;;;;;;27.00;21.80;;;16.90;99.90;;;;;;5056897;28;20419;-81
2022/09/08 01:58:40;;;;;;;28.10;21.67;;;16.90;99.90;;;;;;5056783;28;20078;-81
2022/09/08 02:01:06;;;;;;;26.00;21.63;;;16.90;99.90;;;;;;5056837;28;20412;-81
2022/09/08 02:03:32;;;;;;;28.52;23.38;;;16.90;99.90;;;;;;5057019;28;20042;-81
2022/09/08 02:06:00;;;;;;;29.23;23.40;;;17.00;99.90;;;;;;5074103;28;20400;-81
2022/09/08 02:08:26;;;;;;;31.13;24.30;;;17.00;99.90;;;;;;5040573;28;20034;-81
2022/09/08 02:10:57;;;;;;;29.40;24.05;;;17.00;99.90;;;;;;5056745;28;20188;-81
2022/09/08 02:13:23;;;;;;;30.67;25.60;;;17.10;99.90;;;;;;5057320;28;20511;-81
2022/09/08 02:15:49;;;;;;;32.90;25.77;;;17.20;99.90;;;;;;5056872;28;20053;-81
2022/09/08 02:18:15;;;;;;;33.70;26.58;;;17.20;99.90;;;;;;5039913;28;20078;-81
2022/09/08 02:20:41;;;;;;;33.63;26.20;;;17.30;99.90;;;;;;5039831;28;20054;-81
2022/09/08 02:23:07;;;;;;;33.67;27.45;;;17.30;99.90;;;;;;5073575;28;20561;-81
2022/09/08 02:25:33;;;;;;;35.10;27.33;;;17.30;99.90;;;;;;5056845;28;20085;-81
2022/09/08 02:27:59;;;;;;;34.72;28.05;;;17.30;99.90;;;;;;5056824;28;20042;-81
2022/09/08 02:30:25;;;;;;;34.80;28.35;;;17.40;99.90;;;;;;5073635;28;20400;-81
2022/09/08 02:32:51;;;;;;;33.47;27.80;;;17.40;99.90;;;;;;5073425;28;20076;-81
2022/09/08 02:35:17;;;;;;;34.83;28.77;;;17.50;99.90;;;;;;5073463;28;20050;-81
2022/09/08 02:37:43;;;;;;;36.53;30.02;;;17.50;99.90;;;;;;5039429;28;20051;-81
2022/09/08 02:40:09;;;;;;;34.53;28.67;;;17.50;99.90;;;;;;5073334;28;20061;-80
2022/09/08 02:42:36;;;;;;;38.60;29.77;;;17.50;99.90;;;;;;5022291;28;20047;-81
2022/09/08 02:45:02;;;;;;;39.60;29.52;;;17.50;99.90;;;;;;5039432;28;20050;-80
2022/09/08 02:47:28;;;;;;;36.95;29.45;;;17.50;99.90;;;;;;5038887;28;20045;-81
2022/09/08 02:49:54;;;;;;;36.60;29.90;;;17.60;99.90;;;;;;5038887;28;20039;-81
2022/09/08 02:52:19;;;;;;;38.83;30.48;;;17.60;99.90;;;;;;5056399;28;20104;-81
2022/09/08 02:54:45;;;;;;;37.38;29.45;;;17.60;99.90;;;;;;5055926;28;20070;-81
2022/09/08 02:57:11;;;;;;;35.05;29.58;;;17.60;99.90;;;;;;5073084;28;20046;-81
2022/09/08 02:59:37;;;;;;;42.15;31.38;;;17.60;99.90;;;;;;5056350;28;20046;-82
2022/09/08 03:02:03;;;;;;;;;;;17.60;99.90;;;;;;5073185;28;20039;-81
2022/09/08 03:04:29;;;;;;;37.30;29.73;;;17.60;99.90;;;;;;5023127;28;20286;-81
2022/09/08 03:06:54;;;;;;;40.08;31.90;;;17.60;99.90;;;;;;5039466;28;20129;-81
2022/09/08 03:09:20;;;;;;;38.30;30.67;;;17.60;99.90;;;;;;5072507;28;20515;-81
2022/09/08 03:11:46;;;;;;;39.47;31.02;;;17.60;99.90;;;;;;5072543;28;20140;-81
2022/09/08 03:14:12;;;;;;;39.08;30.98;;;17.60;99.90;;;;;;5038773;28;20547;-81
2022/09/08 03:16:39;;;;;;;41.17;31.17;;;17.60;99.90;;;;;;5055706;28;20134;-81
2022/09/08 03:19:07;;;;;;;41.00;31.38;;;17.60;99.90;;;;;;5055158;28;20054;-81
2022/09/08 03:21:32;;;;;;;41.00;31.38;;;17.60;99.90;;;;;;5055293;28;20054;-80
2022/09/08 03:23:58;;;;;;;38.58;30.73;;;17.60;99.90;;;;;;5055407;28;20047;-81
2022/09/08 03:26:24;;;;;;;39.47;31.73;;;17.60;99.90;;;;;;5072083;28;20195;-81
2022/09/08 03:28:50;;;;;;;39.30;31.60;;;17.50;99.90;;;;;;5056333;28;20507;-81
2022/09/08 03:31:19;;;;;;;39.55;31.85;;;17.50;99.90;;;;;;5072895;28;20043;-81
2022/09/08 03:33:46;;;;;;;38.00;30.25;;;17.50;99.90;;;;;;5039128;28;20493;-82
2022/09/08 03:36:13;;;;;;;40.72;31.58;;;17.50;99.90;;;;;;5054956;28;20126;-81
2022/09/08 03:38:39;;;;;;;37.13;30.15;;;17.50;99.90;;;;;;5038054;28;20123;-81
2022/09/08 03:41:16;;;;;;;34.67;29.55;;;17.50;99.90;;;;;;5071978;28;20045;-82
2022/09/08 03:43:49;;;;;;;36.97;29.00;;;17.40;99.90;;;;;;5055444;28;20047;-81
2022/09/08 03:46:15;;;;;;;36.90;29.65;;;17.40;99.90;;;;;;5038941;28;20557;-82
2022/09/08 03:48:42;;;;;;;36.80;30.90;;;17.30;99.90;;;;;;5038442;28;20034;-80
2022/09/08 03:51:11;;;;;;;;;;;17.30;99.90;;;;;;5038958;28;20080;-81
2022/09/08 03:53:37;;;;;;;39.63;30.58;;;17.20;99.90;;;;;;5054744;28;19918;-81
2022/09/08 03:56:10;;;;;;;40.92;30.30;;;17.20;99.90;;;;;;5055193;28;20045;-82
2022/09/08 03:58:38;;;;;;;40.22;32.13;;;17.20;99.90;;;;;;5038424;28;20495;-82
2022/09/08 04:01:08;;;;;;;40.20;32.53;;;17.10;99.90;;;;;;5072083;28;20039;-82
2022/09/08 04:03:34;;;;;;;38.65;31.65;;;17.20;99.90;;;;;;5038003;28;20058;-82
2022/09/08 04:06:00;;;;;;;42.47;33.97;;;17.20;99.90;;;;;;5054783;28;20039;-83
2022/09/08 04:08:25;;;;;;;42.88;34.15;;;17.20;99.90;;;;;;5071981;28;20042;-82
2022/09/08 04:10:51;;;;;;;41.90;33.38;;;17.10;99.90;;;;;;5055185;28;20043;-82
2022/09/08 04:13:17;;;;;;;42.22;34.45;;;17.10;99.90;;;;;;5071908;28;20122;-82
2022/09/08 04:15:43;;;;;;;40.92;34.95;;;17.10;99.90;;;;;;5071876;28;20383;-82
2022/09/08 04:18:09;;;;;;;46.00;34.30;;;17.10;99.90;;;;;;5071943;28;20053;-82
2022/09/08 04:20:35;;;;;;;43.03;35.65;;;17.10;99.90;;;;;;5054827;28;20062;-82
2022/09/08 04:23:01;;;;;;;;;;;17.10;99.90;;;;;;5038506;28;20412;-82
2022/09/08 04:25:26;;;;;;;44.33;34.58;;;17.10;99.90;;;;;;5037934;28;19925;-82
2022/09/08 04:27:52;;;;;;;45.75;35.53;;;17.10;99.90;;;;;;5070997;28;20070;-81
2022/09/08 04:30:18;;;;;;;42.42;35.03;;;17.10;99.90;;;;;;5071429;28;20385;-81
2022/09/08 04:32:44;;;;;;;43.53;34.20;;;17.10;99.90;;;;;;5054751;28;20536;-81
2022/09/08 04:35:09;;;;;;;43.38;35.38;;;17.10;99.90;;;;;;5070995;28;20099;-81
2022/09/08 04:37:35;;;;;;;47.55;36.28;;;17.20;99.90;;;;;;5071246;28;20193;-81
2022/09/08 04:40:01;;;;;;;43.88;35.40;;;17.20;99.90;;;;;;5071471;28;20555;-81
2022/09/08 04:42:28;;;;;;;43.47;35.42;;;17.20;99.90;;;;;;5071980;28;20487;-81
2022/09/08 04:44:54;;;;;;;45.63;35.10;;;17.20;99.90;;;;;;5054892;28;20049;-81
2022/09/08 04:47:19;;;;;;;43.47;34.25;;;17.20;99.90;;;;;;5054657;28;20034;-81
2022/09/08 04:49:45;;;;;;;47.85;36.42;;;17.20;99.90;;;;;;5037924;28;20041;-81
2022/09/08 04:52:11;;;;;;;47.47;36.53;;;17.20;99.90;;;;;;5054572;28;20125;-81
2022/09/08 04:54:37;;;;;;;45.22;35.15;;;17.20;99.90;;;;;;5038008;28;20047;-81
2022/09/08 04:57:02;;;;;;;46.97;35.95;;;17.20;99.90;;;;;;5072026;28;20046;-81
2022/09/08 04:59:28;;;;;;;43.85;35.10;;;17.20;99.90;;;;;;5054892;28;20050;-81
2022/09/08 05:01:54;;;;;;;43.03;35.50;;;17.20;99.90;;;;;;5071709;28;20102;-80
2022/09/08 05:04:20;;;;;;;47.13;36.17;;;17.20;99.90;;;;;;5071667;28;20078;-81
2022/09/08 05:06:46;;;;;;;48.92;37.03;;;17.20;99.90;;;;;;5041272;28;20047;-81
2022/09/08 05:09:13;;;;;;;47.60;36.60;;;17.10;99.90;;;;;;5075318;28;20100;-81
2022/09/08 05:11:38;;;;;;;48.30;38.22;;;17.10;99.90;;;;;;5057798;28;20090;-81
2022/09/08 05:14:04;;;;;;;48.35;36.50;;;17.10;99.90;;;;;;5075077;28;20039;-82
2022/09/08 05:16:31;;;;;;;51.40;38.47;;;17.10;99.90;;;;;;5041682;28;20035;-82
2022/09/08 05:18:59;;;;;;;49.10;38.35;;;17.20;99.90;;;;;;5057581;28;20111;-82
2022/09/08 05:21:26;;;;;;;49.47;38.08;;;17.20;99.90;;;;;;5057755;28;20050;-81
2022/09/08 05:23:53;;;;;;;48.65;37.95;;;17.20;99.90;;;;;;5057784;28;20050;-82
2022/09/08 05:26:20;;;;;;;46.53;37.30;;;17.20;99.90;;;;;;5040738;28;20130;-81
2022/09/08 05:28:46;;;;;;;46.50;36.38;;;17.30;99.90;;;;;;5058340;28;20073;-81
2022/09/08 05:31:15;;;;;;;48.60;38.58;;;17.30;99.90;;;;;;5074776;28;20043;-81
2022/09/08 05:33:41;;;;;;;46.72;37.05;;;17.30;99.90;;;;;;5041141;28;20518;-82
2022/09/08 05:36:17;;;;;;;48.50;38.17;;;17.30;99.90;;;;;;5074925;28;20035;-81
2022/09/08 05:38:44;;;;;;;49.15;38.08;;;17.30;99.90;;;;;;5057735;28;20130;-81
2022/09/08 05:41:10;;;;;;;49.65;38.13;;;17.30;99.90;;;;;;5057522;28;20179;-81
2022/09/08 05:43:37;;;;;;;47.13;38.50;;;17.30;99.90;;;;;;5057215;28;20046;-81
2022/09/08 05:46:04;;;;;;;51.58;39.97;;;17.30;99.90;;;;;;5041171;28;20463;-81
2022/09/08 05:48:30;;;;;;;46.25;37.00;;;17.30;99.90;;;;;;5057685;28;20129;-81
2022/09/08 05:50:57;;;;;;;47.33;37.25;;;17.30;99.90;;;;;;5040921;28;20093;-81
2022/09/08 05:53:23;;;;;;;47.88;38.60;;;17.40;99.90;;;;;;5040849;28;20043;-82
2022/09/08 05:56:00;;;;;;;47.53;37.78;;;17.40;99.90;;;;;;5074237;28;20524;-82
2022/09/08 05:58:27;;;;;;;48.65;39.15;;;17.40;99.90;;;;;;5040846;28;20089;-82
2022/09/08 06:01:00;;;;;;;49.03;38.80;;;17.40;99.90;;;;;;5057053;28;20112;-83
2022/09/08 06:03:26;;;;;;;49.90;38.58;;;17.40;99.90;;;;;;5057290;28;20381;-82
2022/09/08 06:05:53;;;;;;;50.05;38.90;;;17.40;99.90;;;;;;5074360;28;20533;-82
2022/09/08 06:08:21;;;;;;;48.50;38.65;;;17.40;99.90;;;;;;5057101;28;20047;-82
2022/09/08 06:10:53;;;;;;;47.17;38.63;;;17.40;99.90;;;;;;5056709;28;20043;-82
2022/09/08 06:13:21;;;;;;;46.35;37.53;;;17.40;99.90;;;;;;5056949;28;20078;-83
2022/09/08 06:15:48;;;;;;;44.85;36.53;;;17.50;99.90;;;;;;5039942;28;20065;-83
2022/09/08 06:18:14;;;;;;;45.08;36.60;;;17.50;99.90;;;;;;5040149;28;20043;-83
2022/09/08 06:20:40;;;;;;;42.38;34.80;;;17.50;99.90;;;;;;5056325;28;20059;-83
2022/09/08 06:23:06;;;;;;;43.85;36.00;;;17.60;99.90;;;;;;5056432;28;20054;-82
2022/09/08 06:25:44;;;;;;;44.40;36.80;;;17.60;99.90;;;;;;5056817;28;20080;-83
2022/09/08 06:28:24;;;;;;;44.47;35.80;;;17.60;99.90;;;;;;5040100;28;20046;-82
2022/09/08 06:30:52;;;;;;;42.80;34.67;;;17.60;99.90;;;;;;5039914;28;20068;-83
2022/09/08 06:33:41;;;;;;;45.50;36.58;;;17.60;99.90;;;;;;5039916;28;20043;-83
2022/09/08 06:36:15;;;;;;;42.45;33.75;;;17.70;99.90;;;;;;5039564;28;20047;-80
2022/09/08 06:38:51;;;;;;;48.30;37.33;;;17.90;99.90;;;;;;5039910;28;20129;-81
2022/09/08 06:41:47;;;;;;;48.92;38.65;;;17.80;99.90;;;;;;5056359;28;20073;-81
2022/09/08 06:44:26;;;;;;;52.15;40.58;;;17.80;99.90;;;;;;5056570;28;20050;-81
2022/09/08 06:46:54;;;;;;;54.45;40.95;;;17.60;99.90;;;;;;5039648;28;20039;-81
2022/09/08 06:49:19;;;;;;;51.22;40.50;;;17.60;99.90;;;;;;5056005;28;20043;-82
2022/09/08 06:52:00;;;;;;;54.17;41.13;;;17.60;99.90;;;;;;5039585;28;20041;-81
2022/09/08 06:54:58;;;;;;;51.95;39.97;;;17.50;99.90;;;;;;5072745;28;20054;-81
2022/09/08 06:57:35;;;;;;;51.83;40.00;;;17.40;99.90;;;;;;5038856;28;20047;-81
2022/09/08 07:00:09;;;;;;;;;;;17.40;99.90;;;;;;5040028;28;20570;-81
2022/09/08 07:02:48;;;;;;;56.70;42.47;;;17.50;99.90;;;;;;5056221;28;19988;-82
2022/09/08 07:05:14;;;;;;;56.58;42.20;;;17.50;99.90;;;;;;5073258;28;20039;-82
2022/09/08 07:08:06;;;;;;;72.10;45.60;;;17.40;99.90;;;;;;5073034;28;20064;-81
2022/09/08 07:10:56;;;;;;;68.78;47.55;;;17.40;99.90;;;;;;5072863;28;20078;-82
2022/09/08 07:13:34;;;;;;;63.72;44.28;;;17.40;99.90;;;;;;5072688;28;20039;-82
2022/09/08 07:16:15;;;;;;;64.95;45.97;;;17.40;99.90;;;;;;5072345;28;20039;-81
2022/09/08 07:18:57;;;;;;;66.15;47.03;;;17.30;99.90;;;;;;5039034;28;20057;-80
2022/09/08 07:21:29;;;;;;;71.07;48.58;;;17.30;99.90;;;;;;5055684;28;20055;-81
2022/09/08 07:23:57;;;;;;;67.97;47.47;;;17.30;99.90;;;;;;5072128;28;20047;-81
2022/09/08 07:26:49;;;;;;;71.18;48.13;;;17.30;99.90;;;;;;5039123;28;20105;-81
2022/09/08 07:29:29;;;;;;;74.88;49.33;;;17.20;99.90;;;;;;5037891;28;20051;-82
2022/09/08 07:31:57;;;;;;;61.60;44.75;;;17.20;99.90;;;;;;5072048;28;20055;-80
2022/09/08 07:34:30;;;;;;;68.28;46.40;;;17.20;99.90;;;;;;5072055;28;20151;-81
2022/09/08 07:37:04;;;;;;;71.72;46.95;;;17.20;99.90;;;;;;5038378;28;20096;-81
2022/09/08 07:40:09;;;;;;;74.00;47.35;;;17.20;99.90;;;;;;5054875;28;20201;-81
2022/09/08 07:42:36;;;;;;;79.85;49.85;;;17.20;99.90;;;;;;5019588;28;20050;-81
2022/09/08 07:45:06;;;;;;;72.72;46.85;;;17.20;99.90;;;;;;5021877;28;20039;-82
2022/09/08 07:47:47;;;;;;;76.82;47.15;;;17.10;99.90;;;;;;5072495;28;20043;-82
2022/09/08 07:50:56;;;;;;;67.95;45.17;;;17.10;99.90;;;;;;5071885;28;20045;-82
2022/09/08 07:53:51;;;;;;;78.55;47.70;;;17.10;99.90;;;;;;5054624;28;20034;-82
2022/09/08 07:56:32;;;;;;;65.18;43.30;;;17.10;99.90;;;;;;5031019;28;20054;-82
2022/09/08 07:59:26;;;;;;;69.40;43.95;;;17.10;99.90;;;;;;5072739;28;20381;-82
2022/09/08 08:02:29;;;;;;;83.60;47.70;;;17.00;99.90;;;;;;5071982;28;20129;-82
2022/09/08 08:05:07;;;;;;;77.85;47.10;;;17.00;99.90;;;;;;5055006;28;20039;-82
2022/09/08 08:07:38;;;;;;;78.82;45.13;;;17.00;99.90;;;;;;5054875;28;20222;-83
2022/09/08 08:10:35;;;;;;;76.15;43.30;;;17.00;99.90;;;;;;5038704;28;20043;-83
2022/09/08 08:13:16;;;;;;;73.65;42.65;;;16.90;99.90;;;;;;5037308;28;20142;-83
2022/09/08 08:15:46;;;;;;;65.00;39.67;;;16.90;99.90;;;;;;5071669;28;20047;-84
2022/09/08 08:18:15;;;;;;;77.70;42.42;;;16.90;99.90;;;;;;5020888;28;20042;-83
2022/09/08 08:20:50;;;;;;;61.60;40.38;;;16.90;99.90;;;;;;5071009;28;20050;-83
2022/09/08 08:23:19;;;;;;;61.67;39.38;;;16.90;99.90;;;;;;5071435;28;20062;-83
2022/09/08 08:25:50;;;;;;;57.97;38.13;;;16.90;99.90;;;;;;5073002;28;20125;-83
2022/09/08 08:28:18;;;;;;;55.72;36.78;;;17.00;99.90;;;;;;5072650;28;20035;-82
2022/09/08 08:30:59;;;;;;;59.17;37.60;;;17.00;99.90;;;;;;5055655;28;20395;-83
2022/09/08 08:33:33;;;;;;;59.42;37.72;;;17.00;99.90;;;;;;5071464;28;20050;-83
2022/09/08 08:36:08;;;;;;;58.38;38.55;;;17.00;99.90;;;;;;5038795;28;20046;-83
2022/09/08 08:38:51;;;;;;;55.03;37.53;;;17.00;99.90;;;;;;5038777;28;20042;-83
2022/09/08 08:41:33;;;;;;;60.55;38.53;;;17.00;99.90;;;;;;5074670;28;20049;-83
2022/09/08 08:44:11;;;;;;;57.88;38.47;;;17.10;99.90;;;;;;5075305;28;20073;-83
2022/09/08 08:46:40;;;;;;;66.40;41.67;;;17.10;99.90;;;;;;5075372;28;20039;-83
2022/09/08 08:49:26;;;;;;;57.60;40.30;;;17.10;99.90;;;;;;5074911;28;20129;-83
2022/09/08 08:52:12;;;;;;;58.78;38.90;;;17.20;99.90;;;;;;5074932;28;20038;-82
2022/09/08 08:54:43;;;;;;;60.50;41.72;;;17.20;99.90;;;;;;5075112;28;20165;-82
2022/09/08 08:57:18;;;;;;;65.82;43.10;;;17.20;99.90;;;;;;5074882;28;20069;-82
2022/09/08 08:59:55;;;;;;;58.65;41.40;;;17.30;99.90;;;;;;5074840;28;20035;-82
2022/09/08 09:02:44;;;;;;;;;;;17.30;99.90;;;;;;5075288;28;20085;-82
2022/09/08 09:05:19;;;;;;;59.17;41.35;;;17.40;99.90;;;;;;5057721;28;19919;-81
2022/09/08 09:08:30;;;;;;;58.95;40.60;;;17.30;99.90;;;;;;5074503;28;20039;-82
2022/09/08 09:11:50;;;;;;;48.75;35.80;;;17.40;99.90;;;;;;5030453;28;20077;-82
2022/09/08 09:14:43;;;;;;;55.28;37.17;;;17.40;99.90;;;;;;5017725;28;20574;-83
2022/09/08 09:17:31;;;;;;;45.45;32.33;;;17.40;99.90;;;;;;5016562;28;20052;-83
2022/09/08 09:20:21;;;;;;;43.38;30.90;;;17.40;99.90;;;;;;5033107;28;20496;-83
2022/09/08 09:23:13;;;;;;;48.10;33.05;;;17.40;99.90;;;;;;5074837;28;20500;-83
2022/09/08 09:25:58;;;;;;;36.13;27.20;;;17.50;99.90;;;;;;5041210;28;20488;-83
2022/09/08 09:28:53;;;;;;;38.92;28.33;;;17.50;99.90;;;;;;5041178;28;20051;-83
2022/09/08 09:31:47;;;;;;;33.95;23.85;;;17.50;99.90;;;;;;5074497;28;20078;-83
2022/09/08 09:34:35;;;;;;;24.92;20.60;;;17.60;99.90;;;;;;5041056;28;20451;-83
2022/09/08 09:37:06;;;;;;;;;;;17.60;99.90;;;;;;5074797;28;20035;-83
2022/09/08 09:39:44;;;;;;;21.52;16.88;;;17.60;99.90;;;;;;5040662;28;19925;-83
2022/09/08 09:42:37;;;;;;;20.92;17.02;;;17.60;99.90;;;;;;5074491;28;20571;-83
2022/09/08 09:45:15;;;;;;;18.60;14.15;;;17.60;99.90;;;;;;5074395;28;20043;-84
2022/09/08 09:48:06;;;;;;;16.30;14.25;;;17.60;99.90;;;;;;5057357;28;20039;-84
2022/09/08 09:50:50;;;;;;;16.63;14.13;;;17.70;99.90;;;;;;5040532;28;20545;-84
2022/09/08 09:53:34;;;;;;;19.35;16.10;;;17.70;99.90;;;;;;5040360;28;20050;-84
2022/09/08 09:56:28;;;;;;;18.92;16.17;;;17.60;99.90;;;;;;5073352;28;20038;-84
2022/09/08 09:59:20;;;;;;;19.45;15.38;;;17.70;99.90;;;;;;5074055;28;20484;-82
2022/09/08 10:02:12;;;;;;;19.60;16.48;;;17.70;99.90;;;;;;5021691;28;20058;-83
2022/09/08 10:05:16;;;;;;;20.13;16.63;;;17.70;99.90;;;;;;5073530;28;20043;-83
2022/09/08 10:08:05;;;;;;;24.95;19.67;;;17.80;99.90;;;;;;5074484;28;20039;-82
2022/09/08 10:10:52;;;;;;;18.58;15.60;;;17.80;99.90;;;;;;5073817;28;20538;-82
2022/09/08 10:13:54;;;;;;;15.18;12.95;;;17.90;99.90;;;;;;5073685;28;20081;-82
2022/09/08 10:16:38;;;;;;;18.17;13.85;;;17.90;99.90;;;;;;5040149;28;20047;-82
2022/09/08 10:19:13;;;;;;;16.35;14.45;;;17.90;99.90;;;;;;5056462;28;20097;-82
2022/09/08 10:21:57;;;;;;;10.55;9.18;;;17.90;99.90;;;;;;5056408;28;20150;-82
2022/09/08 10:24:44;;;;;;;9.48;8.43;;;17.90;99.90;;;;;;5039993;28;20079;-82
2022/09/08 10:27:28;;;;;;;9.35;7.72;;;17.90;99.90;;;;;;5056642;28;20407;-82
2022/09/08 10:30:13;;;;;;;9.48;7.53;;;17.80;99.90;;;;;;5040147;28;20543;-82
2022/09/08 10:33:23;;;;;;;7.95;6.18;;;17.80;99.90;;;;;;5040031;28;20183;-82
2022/09/08 10:35:55;;;;;;;6.38;5.63;;;17.70;99.90;;;;;;5024888;28;20498;-82
2022/09/08 10:38:24;;;;;;;8.25;6.15;;;17.70;99.90;;;;;;5039815;28;20042;-82
2022/09/08 10:40:56;;;;;;;6.93;5.00;;;17.70;99.90;;;;;;5073347;28;20122;-83
2022/09/08 10:43:37;;;;;;;6.85;5.65;;;17.70;99.90;;;;;;5039286;28;20047;-83
2022/09/08 10:46:50;;;;;;;6.50;4.65;;;17.70;99.90;;;;;;5039376;28;20057;-83
2022/09/08 10:49:18;;;;;;;6.80;5.57;;;17.70;99.90;;;;;;5017367;28;20054;-83
2022/09/08 10:51:53;;;;;;;5.65;4.55;;;17.70;99.90;;;;;;5056058;28;20058;-83
2022/09/08 10:54:28;;;;;;;6.60;4.00;;;17.70;99.90;;;;;;5039408;28;20074;-83
2022/09/08 10:56:58;;;;;;;5.18;4.57;;;17.60;99.90;;;;;;5039508;28;20039;-84
2022/09/08 11:00:01;;;;;;;7.70;5.10;;;17.60;99.90;;;;;;5056176;28;20074;-83
2022/09/08 11:02:35;;;;;;;5.88;4.53;;;17.50;99.90;;;;;;5038813;28;20097;-84
2022/09/08 11:05:25;;;;;;;7.60;4.47;;;17.50;99.90;;;;;;5039527;28;20046;-84
2022/09/08 11:07:59;;;;;;;3.65;3.17;;;17.50;99.90;;;;;;5072864;28;20039;-83
2022/09/08 11:10:46;;;;;;;5.25;3.55;;;17.60;99.90;;;;;;5039112;28;20034;-84
2022/09/08 11:13:24;;;;;;;4.38;3.40;;;17.50;99.90;;;;;;5072761;28;20043;-84
2022/09/08 11:16:12;;;;;;;4.47;3.42;;;17.50;99.90;;;;;;5055766;28;20054;-83
2022/09/08 11:18:43;;;;;;;5.30;3.63;;;17.50;99.90;;;;;;5038919;28;20047;-83
2022/09/08 11:21:36;;;;;;;5.90;3.38;;;17.50;99.90;;;;;;5055507;28;20138;-83
2022/09/08 11:24:08;;;;;;;4.30;2.42;;;17.40;99.90;;;;;;5055693;28;20450;-83
2022/09/08 11:26:56;;;;;;;3.03;2.03;;;17.50;99.90;;;;;;5038927;28;20054;-83
2022/09/08 11:29:36;;;;;;;3.28;2.00;;;17.40;99.90;;;;;;5072799;28;20439;-83
2022/09/08 11:32:21;;;;;;;4.70;2.00;;;17.40;99.90;;;;;;5039174;28;20051;-83
2022/09/08 11:34:51;;;;;;;5.65;2.30;;;17.40;99.90;;;;;;5055315;28;20050;-83
2022/09/08 11:37:38;;;;;;;4.97;2.03;;;17.40;99.90;;;;;;5055553;28;20074;-83
2022/09/08 11:40:30;;;;;;;3.10;1.85;;;17.40;99.90;;;;;;5039036;28;20035;-83
2022/09/08 11:43:21;;;;;;;4.15;2.00;;;17.30;99.90;;;;;;5073475;28;20085;-83
2022/09/08 11:46:14;;;;;;;6.18;2.00;;;17.20;99.90;;;;;;5056234;28;20492;-83
2022/09/08 11:49:07;;;;;;;4.10;1.73;;;17.20;99.90;;;;;;5038939;28;20038;-84
2022/09/08 11:51:57;;;;;;;4.32;1.67;;;17.20;99.90;;;;;;5039145;28;20039;-83
2022/09/08 11:54:42;;;;;;;4.75;1.63;;;17.20;99.90;;;;;;5072009;28;20035;-84
2022/09/08 11:57:32;;;;;;;3.45;1.92;;;17.30;99.90;;;;;;5038581;28;20046;-84
2022/09/08 12:00:29;;;;;;;4.78;1.95;;;17.20;99.90;;;;;;5030074;28;20530;-83
2022/09/08 12:03:32;;;;;;;4.60;2.58;;;17.20;99.90;;;;;;5055282;28;20099;-83
2022/09/08 12:06:13;;;;;;;5.72;2.60;;;17.20;99.90;;;;;;5038313;28;20038;-82
2022/09/08 12:08:50;;;;;;;6.28;2.53;;;17.20;99.90;;;;;;5071349;28;20100;-82
2022/09/08 12:11:55;;;;;;;4.85;2.95;;;17.20;99.90;;;;;;5038234;28;20082;-83
2022/09/08 12:14:44;;;;;;;5.85;2.05;;;17.20;99.90;;;;;;5073170;28;20074;-82
2022/09/08 12:17:25;;;;;;;5.68;2.80;;;17.30;99.90;;;;;;5045120;28;20387;-83
2022/09/08 12:20:10;;;;;;;5.75;2.80;;;17.20;99.90;;;;;;5044655;28;20047;-83
2022/09/08 12:22:50;;;;;;;4.85;2.90;;;17.30;99.90;;;;;;5044827;28;20412;-83
2022/09/08 12:25:29;;;;;;;3.75;2.50;;;17.30;99.90;;;;;;5061828;28;20043;-83
2022/09/08 12:28:26;;;;;;;3.28;2.33;;;17.30;99.90;;;;;;5078599;28;20074;-83
2022/09/08 12:31:24;;;;;;;3.83;2.60;;;17.40;99.90;;;;;;5044588;28;20035;-83
2022/09/08 12:34:22;;;;;;;3.42;1.90;;;17.40;99.90;;;;;;5061488;28;20400;-83
2022/09/08 12:37:00;;;;;;;4.22;2.10;;;17.40;99.90;;;;;;5078420;28;20050;-83
2022/09/08 12:39:34;;;;;;;4.47;2.13;;;17.50;99.90;;;;;;5061607;28;20147;-82
2022/09/08 12:42:08;;;;;;;3.20;1.95;;;17.50;99.90;;;;;;5078291;28;20054;-82
2022/09/08 12:45:03;;;;;;;3.65;2.17;;;17.50;99.90;;;;;;5044713;28;20061;-82
2022/09/08 12:48:04;;;;;;;4.20;2.30;;;17.60;99.90;;;;;;5077909;28;20076;-82
2022/09/08 12:50:39;;;;;;;2.63;1.98;;;17.60;99.90;;;;;;5044451;28;20041;-82
2022/09/08 12:53:20;;;;;;;3.55;2.35;;;17.60;99.90;;;;;;5061109;28;20082;-82
2022/09/08 12:56:03;;;;;;;3.67;2.63;;;17.60;99.90;;;;;;5044503;28;20050;-81
2022/09/08 12:58:42;;;;;;;3.40;2.20;;;17.60;99.90;;;;;;5061200;28;20054;-81
2022/09/08 13:01:24;;;;;;;4.15;2.30;;;17.70;99.90;;;;;;5060766;28;20561;-81
2022/09/08 13:03:57;;;;;;;4.05;2.33;;;17.60;99.90;;;;;;5077569;28;20039;-81
2022/09/08 13:06:33;;;;;;;3.22;2.40;;;17.60;99.90;;;;;;5043976;28;20043;-81
2022/09/08 13:09:07;;;;;;;4.97;3.00;;;17.60;99.90;;;;;;5060869;28;20496;-81
2022/09/08 13:11:46;;;;;;;5.93;3.28;;;17.60;99.90;;;;;;5077777;28;20042;-81
2022/09/08 13:14:14;;;;;;;4.47;3.22;;;17.70;99.90;;;;;;5060517;28;20041;-82
2022/09/08 13:17:15;;;;;;;4.53;3.53;;;17.70;99.90;;;;;;5043713;28;20074;-81
2022/09/08 13:20:20;;;;;;;6.60;3.50;;;17.70;99.90;;;;;;5060504;28;20046;-81
2022/09/08 13:23:24;;;;;;;6.03;4.20;;;17.70;99.90;;;;;;5044056;28;20129;-81